sensor_id;sensor_type;location;lat;lon;timestamp;temperature;humidity
64468;DHT22;50853;46.836;16.820;2022-12-07T17:58:12;24.30;44.30
64468;DHT22;50853;46.836;16.820;2022-12-07T18:00:38;24.30;47.10
64468;DHT22;50853;46.836;16.820;2022-12-07T18:03:06;24.30;47.60
64468;DHT22;50853;46.836;16.820;2022-12-07T18:05:37;24.30;48.10
64468;DHT22;50853;46.836;16.820;2022-12-07T18:08:04;24.30;48.40
64468;DHT22;50853;46.836;16.820;2022-12-07T18:10:30;24.30;48.50
64468;DHT22;50853;46.836;16.820;2022-12-07T18:12:56;24.30;49.30
64468;DHT22;50853;46.836;16.820;2022-12-07T18:15:42;24.30;48.80
64468;DHT22;50853;46.836;16.820;2022-12-07T18:18:08;24.30;49.70
64468;DHT22;50853;46.836;16.820;2022-12-07T18:20:34;24.30;49.80
64468;DHT22;50853;46.836;16.820;2022-12-07T18:22:59;24.30;49.70
64468;DHT22;50853;46.836;16.820;2022-12-07T18:25:25;24.30;49.80
64468;DHT22;50853;46.836;16.820;2022-12-07T18:27:51;24.30;50.00
64468;DHT22;50853;46.836;16.820;2022-12-07T18:30:17;24.30;49.90
64468;DHT22;50853;46.836;16.820;2022-12-07T18:32:43;24.30;49.90
64468;DHT22;50853;46.836;16.820;2022-12-07T18:35:08;24.30;50.00
64468;DHT22;50853;46.836;16.820;2022-12-07T18:37:34;24.30;49.90
64468;DHT22;50853;46.836;16.820;2022-12-07T18:40:00;24.30;50.00
64468;DHT22;50853;46.836;16.820;2022-12-07T18:42:26;24.30;50.20
64468;DHT22;50853;46.836;16.820;2022-12-07T18:44:52;24.30;49.90
64468;DHT22;50853;46.836;16.820;2022-12-07T18:47:17;24.30;50.00
64468;DHT22;50853;46.836;16.820;2022-12-07T18:49:43;24.30;50.00
64468;DHT22;50853;46.836;16.820;2022-12-07T18:52:09;24.30;49.90
64468;DHT22;50853;46.836;16.820;2022-12-07T18:54:35;24.30;50.70
64468;DHT22;50853;46.836;16.820;2022-12-07T18:57:00;24.30;50.30
64468;DHT22;50853;46.836;16.820;2022-12-07T18:59:26;24.30;50.50
64468;DHT22;50853;46.836;16.820;2022-12-07T19:02:10;24.30;50.30
64468;DHT22;50853;46.836;16.820;2022-12-07T19:04:36;24.30;50.50
64468;DHT22;50853;46.836;16.820;2022-12-07T19:07:02;24.30;50.60
64468;DHT22;50853;46.836;16.820;2022-12-07T19:09:28;24.30;50.90
64468;DHT22;50853;46.836;16.820;2022-12-07T19:11:54;24.30;50.70
64468;DHT22;50853;46.836;16.820;2022-12-07T19:14:25;24.30;50.70
64468;DHT22;50853;46.836;16.820;2022-12-07T19:16:54;24.30;50.70
64468;DHT22;50853;46.836;16.820;2022-12-07T19:19:22;24.30;50.90
64468;DHT22;50853;46.836;16.820;2022-12-07T19:21:49;24.30;50.70
64468;DHT22;50853;46.836;16.820;2022-12-07T19:24:15;24.30;50.60
64468;DHT22;50853;46.836;16.820;2022-12-07T19:26:41;24.30;50.50
64468;DHT22;50853;46.836;16.820;2022-12-07T19:29:07;24.30;50.60
64468;DHT22;50853;46.836;16.820;2022-12-07T19:31:34;24.30;50.50
64468;DHT22;50853;46.836;16.820;2022-12-07T19:34:00;24.30;50.70
64468;DHT22;50853;46.836;16.820;2022-12-07T19:36:27;24.30;50.90
64468;DHT22;50853;46.836;16.820;2022-12-07T19:38:52;24.30;51.20
64468;DHT22;50853;46.836;16.820;2022-12-07T19:41:18;24.30;50.90
64468;DHT22;50853;46.836;16.820;2022-12-07T19:46:30;24.30;50.90
64468;DHT22;50853;46.836;16.820;2022-12-07T19:48:57;24.30;50.70
64468;DHT22;50853;46.836;16.820;2022-12-07T19:51:23;24.30;50.70
64468;DHT22;50853;46.836;16.820;2022-12-07T19:53:49;24.30;50.80
64468;DHT22;50853;46.836;16.820;2022-12-07T19:56:17;24.30;50.30
64468;DHT22;50853;46.836;16.820;2022-12-07T19:58:43;24.20;50.20
64468;DHT22;50853;46.836;16.820;2022-12-07T20:01:09;24.20;50.10
64468;DHT22;50853;46.836;16.820;2022-12-07T20:03:34;24.20;49.90
64468;DHT22;50853;46.836;16.820;2022-12-07T20:06:00;24.20;49.60
64468;DHT22;50853;46.836;16.820;2022-12-07T20:08:26;24.20;49.50
64468;DHT22;50853;46.836;16.820;2022-12-07T20:10:52;24.20;49.60
64468;DHT22;50853;46.836;16.820;2022-12-07T20:13:19;24.20;49.60
64468;DHT22;50853;46.836;16.820;2022-12-07T20:15:55;24.20;49.70
64468;DHT22;50853;46.836;16.820;2022-12-07T20:18:21;24.20;50.00
64468;DHT22;50853;46.836;16.820;2022-12-07T20:20:58;24.30;53.70
64468;DHT22;50853;46.836;16.820;2022-12-07T20:23:25;24.30;53.00
64468;DHT22;50853;46.836;16.820;2022-12-07T20:25:51;24.30;53.50
64468;DHT22;50853;46.836;16.820;2022-12-07T20:28:17;24.30;53.80
64468;DHT22;50853;46.836;16.820;2022-12-07T20:30:51;24.30;53.80
64468;DHT22;50853;46.836;16.820;2022-12-07T20:33:18;24.30;54.40
64468;DHT22;50853;46.836;16.820;2022-12-07T20:35:44;24.30;54.30
64468;DHT22;50853;46.836;16.820;2022-12-07T20:38:10;24.40;54.60
64468;DHT22;50853;46.836;16.820;2022-12-07T20:40:36;24.30;54.30
64468;DHT22;50853;46.836;16.820;2022-12-07T20:43:03;24.30;54.20
64468;DHT22;50853;46.836;16.820;2022-12-07T20:45:29;24.30;54.00
64468;DHT22;50853;46.836;16.820;2022-12-07T20:47:54;24.30;53.80
64468;DHT22;50853;46.836;16.820;2022-12-07T20:50:20;24.30;53.50
64468;DHT22;50853;46.836;16.820;2022-12-07T20:52:46;24.30;53.30
64468;DHT22;50853;46.836;16.820;2022-12-07T20:55:12;24.30;53.00
64468;DHT22;50853;46.836;16.820;2022-12-07T20:57:38;24.30;52.80
64468;DHT22;50853;46.836;16.820;2022-12-07T21:00:08;24.30;52.60
64468;DHT22;50853;46.836;16.820;2022-12-07T21:02:37;24.30;52.20
64468;DHT22;50853;46.836;16.820;2022-12-07T21:05:03;24.20;52.00
64468;DHT22;50853;46.836;16.820;2022-12-07T21:07:29;24.30;51.90
64468;DHT22;50853;46.836;16.820;2022-12-07T21:09:55;24.30;51.80
64468;DHT22;50853;46.836;16.820;2022-12-07T21:12:20;24.30;51.80
64468;DHT22;50853;46.836;16.820;2022-12-07T21:14:46;24.30;51.80
64468;DHT22;50853;46.836;16.820;2022-12-07T21:17:12;24.30;51.60
64468;DHT22;50853;46.836;16.820;2022-12-07T21:19:37;24.30;51.60
